Terminal Aerodrome Forecast
Issued by NWS Central Illinois

Home | Current Version | Previous Version | Text Only | Print | Product List | Glossary On
Versions: 1 2 3 4 5 6 7 8 9 10 11 12 13 14 15 16 17
954
FTUS43 KILX 060130 AAA
TAFPIA
TAF AMD
KPIA 060130Z 0602/0624 10006KT P6SM BKN009
     FM060300 11007KT P6SM SCT009
     FM060700 14006KT 3SM BR OVC008
     FM061100 18004KT 1/2SM FG OVC003
     FM061400 29007KT 1SM BR OVC007
     FM061600 30009KT 4SM BR BKN015
     FM061800 28010KT P6SM SCT040=

USA.gov is the U.S. government's official web portal to all federal, state and local government web resources and services.